Time;durP1;ratioP1;P1;durP2;ratioP2;P2;SDS_P1;SDS_P2;PMS_P1;PMS_P2;Temp;Humidity;BMP_temperature;BMP_pressure;BME280_temperature;BME280_humidity;BME280_pressure;Samples;Min_cycle;Max_cycle;Signal;HPM_P1;HPM_P2
2024/01/05 00:02:25;;;;;;;5.20;3.40;;;3.80;99.90;;;4.40;100.00;96936.22;10408252;28;20229;-66
2024/01/05 00:07:29;;;;;;;3.67;2.83;;;3.80;99.90;;;4.35;100.00;96932.53;10403605;28;20590;-65
2024/01/05 00:12:33;;;;;;;5.70;3.77;;;3.70;99.90;;;4.32;100.00;96922.22;10421740;28;20226;-65
2024/01/05 00:17:37;;;;;;;7.43;4.07;;;3.70;99.90;;;4.45;100.00;96922.22;10420839;28;20224;-65
2024/01/05 00:22:41;;;;;;;6.00;3.87;;;3.80;99.90;;;4.37;100.00;96908.19;10408981;28;20233;-66
2024/01/05 00:27:45;;;;;;;6.43;3.40;;;3.80;99.90;;;4.34;100.00;96913.06;10469020;28;20246;-66
2024/01/05 00:32:49;;;;;;;4.90;3.40;;;3.70;99.90;;;4.38;100.00;96904.91;10490029;28;20252;-66
2024/01/05 00:37:52;;;;;;;7.67;3.37;;;3.70;99.90;;;4.25;100.00;96889.69;10485818;28;20309;-66
2024/01/05 00:42:57;;;;;;;6.50;3.90;;;3.60;99.90;;;4.26;100.00;96878.78;10486893;28;20628;-66
2024/01/05 00:48:00;;;;;;;8.93;4.20;;;3.60;99.90;;;4.21;100.00;96880.16;10479727;28;20753;-66
2024/01/05 00:53:04;;;;;;;7.97;3.33;;;3.60;99.90;;;4.23;100.00;96866.81;10432370;28;20232;-66
2024/01/05 00:58:09;;;;;;;7.67;3.97;;;3.60;99.90;;;4.14;100.00;96871.28;10427284;28;20261;-66
2024/01/05 01:03:12;;;;;;;5.43;3.40;;;3.60;99.90;;;4.15;100.00;96880.66;10409661;28;20232;-63
2024/01/05 01:08:16;;;;;;;5.90;4.23;;;3.60;99.90;;;4.15;100.00;96875.59;10404365;28;20244;-64
2024/01/05 01:13:20;;;;;;;8.77;4.00;;;3.60;99.90;;;4.24;100.00;96881.25;10409626;28;20312;-64
2024/01/05 01:18:23;;;;;;;6.57;4.17;;;3.70;99.90;;;4.38;100.00;96866.06;10445710;28;20235;-63
2024/01/05 01:23:27;;;;;;;4.60;3.87;;;3.80;99.90;;;4.43;100.00;96867.25;10482539;28;20238;-65
2024/01/05 01:28:32;;;;;;;3.77;3.43;;;3.80;99.90;;;4.47;100.00;96874.25;10445806;28;20233;-65
2024/01/05 01:33:35;;;;;;;4.93;3.40;;;3.70;99.90;;;4.40;100.00;96867.03;10452549;28;20714;-64
2024/01/05 01:38:38;;;;;;;4.77;3.47;;;3.70;99.90;;;4.47;100.00;96872.59;10407844;28;20229;-65
2024/01/05 01:43:48;;;;;;;6.23;3.10;;;3.60;99.90;;;4.40;100.00;96880.56;10408642;28;20714;-64
2024/01/05 01:48:56;;;;;;;6.30;3.43;;;3.60;99.90;;;4.32;100.00;96891.88;10450550;28;20921;-64
2024/01/05 01:54:00;;;;;;;5.57;3.60;;;3.50;99.90;;;4.12;100.00;96882.97;10491330;28;20320;-64
2024/01/05 01:59:06;;;;;;;6.07;3.80;;;3.40;99.90;;;4.00;100.00;96859.41;10441211;28;20220;-64
2024/01/05 02:04:14;;;;;;;3.63;2.57;;;3.40;99.90;;;3.98;100.00;96851.72;10425556;28;20236;-65
2024/01/05 02:09:18;;;;;;;4.40;3.13;;;3.30;99.90;;;3.90;100.00;96831.78;10419213;28;20289;-65
2024/01/05 02:14:23;;;;;;;6.83;3.30;;;3.30;99.90;;;3.99;100.00;96824.78;10456379;28;20239;-65
2024/01/05 02:19:26;;;;;;;4.47;3.07;;;3.30;99.90;;;3.99;100.00;96804.56;10500800;28;20315;-65
2024/01/05 02:24:31;;;;;;;5.33;3.23;;;3.30;99.90;;;3.93;100.00;96807.56;10499268;28;20691;-65
2024/01/05 02:29:34;;;;;;;3.23;2.70;;;3.20;99.90;;;3.72;100.00;96768.25;10446212;28;20310;-66
2024/01/05 02:34:37;;;;;;;3.57;2.80;;;3.10;99.90;;;3.91;100.00;96783.84;10490776;28;20228;-65
2024/01/05 02:39:41;;;;;;;4.93;3.50;;;3.30;99.90;;;3.97;100.00;96771.59;10503422;28;20235;-66
2024/01/05 02:44:45;;;;;;;3.37;2.83;;;3.40;99.90;;;4.06;100.00;96757.03;10496188;28;20224;-66
2024/01/05 02:49:48;;;;;;;4.43;2.83;;;3.40;99.90;;;4.02;100.00;96755.06;10436584;28;20229;-66
2024/01/05 02:54:53;;;;;;;3.03;2.57;;;3.40;99.90;;;4.19;100.00;96748.56;10425195;28;20217;-65
2024/01/05 02:59:57;;;;;;;3.93;3.10;;;3.60;99.90;;;4.18;100.00;96751.88;10482161;28;20468;-66
2024/01/05 03:05:00;;;;;;;6.47;3.83;;;3.60;99.90;;;4.21;100.00;96746.16;10454176;28;20216;-66
2024/01/05 03:10:06;;;;;;;3.93;3.43;;;3.60;99.90;;;4.48;100.00;96754.56;10414600;28;20237;-66
2024/01/05 03:15:09;;;;;;;6.10;3.67;;;3.70;99.90;;;4.26;100.00;96737.16;10486991;28;20224;-66
2024/01/05 03:20:14;;;;;;;5.13;3.37;;;3.60;99.90;;;4.22;100.00;96722.59;10490728;28;20372;-65
2024/01/05 03:25:19;;;;;;;3.30;2.10;;;3.50;99.90;;;4.06;100.00;96719.13;10475351;28;20223;-66
2024/01/05 03:30:22;;;;;;;2.57;2.37;;;3.40;99.90;;;4.14;100.00;96716.19;10443502;28;21463;-66
2024/01/05 03:35:25;;;;;;;3.17;2.90;;;3.50;99.90;;;4.22;100.00;96725.13;10448280;28;20604;-65
2024/01/05 03:40:30;;;;;;;5.40;3.17;;;3.50;99.90;;;4.13;100.00;96710.25;10464170;28;20399;-66
2024/01/05 03:45:33;;;;;;;5.17;2.83;;;3.40;99.90;;;4.07;100.00;96708.22;10448577;28;20343;-66
2024/01/05 03:50:36;;;;;;;3.30;2.50;;;3.40;99.90;;;3.95;100.00;96699.88;10450110;28;20373;-66
2024/01/05 03:55:41;;;;;;;3.03;2.50;;;3.30;99.90;;;3.93;100.00;96696.34;10449916;28;20229;-66
2024/01/05 04:00:44;;;;;;;5.13;2.67;;;3.30;99.90;;;3.97;100.00;96692.34;10458254;28;20320;-66
2024/01/05 04:05:47;;;;;;;5.00;2.77;;;3.30;99.90;;;3.89;100.00;96689.34;10451097;28;20739;-65
2024/01/05 04:10:52;;;;;;;6.37;3.10;;;3.30;99.90;;;3.94;100.00;96693.03;10452297;28;20221;-65
2024/01/05 04:15:55;;;;;;;4.83;3.17;;;3.30;99.90;;;3.83;100.00;96678.84;10453481;28;20263;-64
2024/01/05 04:20:58;;;;;;;4.07;3.27;;;3.20;99.90;;;3.79;100.00;96684.50;10447780;28;20323;-65
2024/01/05 04:26:03;;;;;;;4.40;3.50;;;3.10;99.90;;;3.70;100.00;96686.44;10446956;28;20239;-63
2024/01/05 04:31:06;;;;;;;3.03;2.57;;;3.00;99.90;;;3.71;100.00;96678.06;10445985;28;20240;-64
2024/01/05 04:36:10;;;;;;;3.63;3.03;;;3.10;99.90;;;3.99;100.00;96676.50;10448275;28;20226;-64
2024/01/05 04:41:17;;;;;;;5.67;2.90;;;3.30;99.90;;;4.02;100.00;96680.88;10444352;28;20297;-64
2024/01/05 04:46:21;;;;;;;5.40;2.90;;;3.30;99.90;;;3.92;100.00;96679.44;10450036;28;20220;-73
2024/01/05 04:51:24;;;;;;;4.33;3.20;;;3.20;99.90;;;3.92;100.00;96683.59;10462621;28;20247;-66
2024/01/05 04:56:28;;;;;;;5.50;3.10;;;3.20;99.90;;;3.91;100.00;96680.22;10447089;28;20235;-66
2024/01/05 05:01:31;;;;;;;5.40;3.20;;;3.20;99.90;;;3.91;100.00;96681.88;10458436;28;20473;-65
2024/01/05 05:06:35;;;;;;;3.90;3.30;;;3.20;99.90;;;3.99;100.00;96686.63;10459179;28;20448;-64
2024/01/05 05:11:40;;;;;;;3.40;3.10;;;3.30;99.90;;;3.94;100.00;96677.88;10447682;28;20238;-65
2024/01/05 05:16:44;;;;;;;4.07;3.20;;;3.30;99.90;;;4.01;100.00;96674.97;10443193;28;20268;-65
2024/01/05 05:21:47;;;;;;;3.63;2.50;;;3.40;99.90;;;4.11;100.00;96670.47;10452598;28;20373;-65
2024/01/05 05:26:51;;;;;;;2.63;2.10;;;3.30;99.90;;;3.91;100.00;96667.56;10445027;28;20248;-64
2024/01/05 05:31:54;;;;;;;2.33;2.23;;;3.10;99.90;;;3.66;100.00;96660.06;10461614;28;20234;-65
2024/01/05 05:36:57;;;;;;;5.27;2.70;;;3.00;99.90;;;3.72;100.00;96659.59;10452016;28;20231;-66
2024/01/05 05:42:02;;;;;;;3.63;2.53;;;3.10;99.90;;;3.81;100.00;96660.19;10489587;28;20231;-66
2024/01/05 05:47:05;;;;;;;2.40;2.30;;;3.10;99.90;;;3.61;100.00;96657.28;10485999;28;20220;-65
2024/01/05 05:52:09;;;;;;;2.93;2.73;;;2.90;99.90;;;3.68;100.00;96648.44;10472610;28;20231;-65
2024/01/05 05:57:13;;;;;;;3.87;2.90;;;2.90;99.90;;;3.57;100.00;96664.56;10439713;28;20256;-65
2024/01/05 06:02:17;;;;;;;3.23;2.97;;;2.80;99.90;;;3.56;100.00;96670.41;10445964;28;20235;-65
2024/01/05 06:07:20;;;;;;;4.27;2.93;;;2.80;99.90;;;3.42;100.00;96679.59;10462904;28;20220;-65
2024/01/05 06:12:24;;;;;;;5.53;3.37;;;2.80;99.90;;;3.27;100.00;96678.59;10486171;28;20236;-66
2024/01/05 06:17:27;;;;;;;4.80;3.50;;;2.70;99.90;;;3.26;100.00;96666.75;10415239;28;20225;-65
2024/01/05 06:22:30;;;;;;;4.40;3.43;;;2.70;99.90;;;3.36;100.00;96669.97;10411728;28;20307;-66
2024/01/05 06:27:36;;;;;;;5.33;3.60;;;2.80;99.90;;;3.38;100.00;96660.00;10436841;28;20216;-65
2024/01/05 06:32:41;;;;;;;4.87;3.87;;;2.80;99.90;;;3.52;100.00;96674.38;10488906;28;20232;-65
2024/01/05 06:37:44;;;;;;;5.77;3.70;;;2.90;99.90;;;3.65;100.00;96670.97;10481236;28;20332;-64
2024/01/05 06:42:49;;;;;;;4.10;3.60;;;3.00;99.90;;;3.70;100.00;96679.72;10490934;28;20316;-65
2024/01/05 06:47:52;;;;;;;4.40;3.43;;;3.10;99.90;;;3.70;100.00;96671.28;10491706;28;20215;-65
2024/01/05 06:52:55;;;;;;;5.03;3.03;;;3.00;99.90;;;3.77;100.00;96668.34;10485839;28;20263;-65
2024/01/05 06:58:01;;;;;;;3.93;3.53;;;3.00;99.90;;;3.68;100.00;96662.72;10426492;28;20267;-65
2024/01/05 07:03:05;;;;;;;4.33;3.50;;;3.00;99.90;;;3.65;100.00;96662.53;10490088;28;20228;-66
2024/01/05 07:08:08;;;;;;;5.93;4.10;;;3.00;99.90;;;3.69;100.00;96664.47;10487275;28;20227;-66
2024/01/05 07:13:13;;;;;;;3.50;3.20;;;3.10;99.90;;;3.64;100.00;96658.25;10497889;28;20317;-65
2024/01/05 07:18:16;;;;;;;5.07;4.07;;;3.00;99.90;;;3.66;100.00;96660.06;10428996;28;20324;-66
2024/01/05 07:23:20;;;;;;;6.90;4.70;;;3.00;99.90;;;3.78;100.00;96670.13;10411743;28;20239;-66
2024/01/05 07:28:24;;;;;;;5.23;4.50;;;3.10;99.90;;;3.90;100.00;96688.56;10448578;28;20238;-67
2024/01/05 07:33:27;;;;;;;6.10;5.13;;;3.10;99.90;;;3.81;100.00;96683.81;10492419;28;20606;-66
2024/01/05 07:38:31;;;;;;;7.73;6.47;;;3.10;99.90;;;3.75;100.00;96678.38;10484225;28;20234;-66
2024/01/05 07:43:35;;;;;;;6.73;6.03;;;3.10;99.90;;;3.77;100.00;96679.31;10486239;28;20697;-66
2024/01/05 07:48:41;;;;;;;8.30;7.47;;;3.10;99.90;;;3.79;100.00;96679.44;10443778;28;20240;-65
2024/01/05 07:53:44;;;;;;;9.93;8.63;;;3.10;99.90;;;3.89;100.00;96684.28;10423045;28;20859;-64
2024/01/05 07:58:49;;;;;;;7.20;5.43;;;3.20;99.90;;;3.92;100.00;96688.66;10413610;28;20269;-65
2024/01/05 08:03:52;;;;;;;6.00;5.30;;;3.30;99.90;;;4.02;100.00;96689.34;10413558;28;20721;-65
2024/01/05 08:08:56;;;;;;;13.73;10.53;;;3.20;99.90;;;3.93;100.00;96676.13;10464084;28;20227;-64
2024/01/05 08:14:00;;;;;;;4.23;3.77;;;3.20;99.90;;;3.82;100.00;96669.53;10428113;28;20312;-66
2024/01/05 08:19:03;;;;;;;11.57;8.97;;;3.10;99.90;;;3.87;100.00;96665.66;10432175;28;20754;-65
2024/01/05 08:24:07;;;;;;;6.83;6.00;;;3.20;99.90;;;3.96;100.00;96668.75;10448552;28;20524;-67
2024/01/05 08:29:11;;;;;;;6.17;4.97;;;3.30;99.90;;;4.11;100.00;96665.41;10479195;28;20300;-66
2024/01/05 08:34:14;;;;;;;4.37;3.33;;;3.40;99.90;;;4.19;100.00;96666.78;10484182;28;20238;-66
2024/01/05 08:39:18;;;;;;;6.83;4.87;;;3.50;99.90;;;4.31;100.00;96670.06;10479515;28;20239;-65
2024/01/05 08:44:23;;;;;;;8.80;6.10;;;3.70;99.90;;;4.57;100.00;96669.09;10457154;28;20324;-65
2024/01/05 08:49:26;;;;;;;6.93;4.30;;;3.80;99.90;;;4.57;100.00;96669.09;10479365;28;20256;-67
2024/01/05 08:54:29;;;;;;;6.03;4.40;;;3.90;99.90;;;4.66;100.00;96666.25;10455903;28;20644;-65
2024/01/05 08:59:36;;;;;;;6.57;5.17;;;3.90;99.90;;;4.77;100.00;96662.72;10437522;28;20232;-66
2024/01/05 09:04:39;;;;;;;9.73;7.47;;;4.10;99.90;;;4.91;100.00;96666.94;10482551;28;20257;-65
2024/01/05 09:09:42;;;;;;;11.10;9.43;;;4.20;99.90;;;4.89;100.00;96665.09;10436636;28;20315;-65
2024/01/05 09:14:47;;;;;;;7.70;7.00;;;4.10;99.90;;;4.88;100.00;96656.63;10454698;28;20259;-64
2024/01/05 09:19:50;;;;;;;9.97;8.47;;;4.10;99.90;;;4.85;100.00;96671.63;10488197;28;20224;-64
2024/01/05 09:24:53;;;;;;;7.50;6.67;;;4.20;99.90;;;5.03;100.00;96676.03;10493140;28;20223;-65
2024/01/05 09:29:58;;;;;;;9.30;7.23;;;4.20;99.90;;;4.97;100.00;96681.63;10488328;28;20731;-66
2024/01/05 09:35:01;;;;;;;6.40;5.80;;;4.20;99.90;;;5.25;100.00;96686.66;10488678;28;20228;-65
2024/01/05 09:40:06;;;;;;;5.53;4.80;;;4.40;99.90;;;5.27;100.00;96692.69;10490243;28;20668;-66
2024/01/05 09:45:12;;;;;;;5.63;5.03;;;4.40;99.90;;;5.40;100.00;96702.72;10497176;28;20678;-66
2024/01/05 09:50:17;;;;;;;5.53;5.00;;;4.50;99.90;;;5.34;100.00;96699.84;10489275;28;20592;-65
2024/01/05 09:55:21;;;;;;;9.23;8.10;;;4.60;99.90;;;5.31;100.00;96702.19;10439094;28;20315;-66
2024/01/05 10:00:27;;;;;;;6.33;5.07;;;4.60;99.90;;;5.56;100.00;96690.94;10436623;28;20759;-65
2024/01/05 10:05:30;;;;;;;6.70;6.00;;;4.70;99.90;;;5.53;100.00;96686.56;10415697;28;20229;-65
2024/01/05 10:10:47;;;;;;;7.07;6.43;;;4.80;99.90;;;5.48;100.00;96687.09;10457201;28;20235;-65
2024/01/05 10:15:56;;;;;;;7.63;6.47;;;4.70;99.90;;;5.60;100.00;96687.78;10426965;28;20225;-64
2024/01/05 10:21:10;;;;;;;6.40;5.80;;;4.90;99.90;;;5.72;100.00;96682.53;10441998;28;20221;-66
2024/01/05 10:26:16;;;;;;;7.77;5.70;;;5.00;99.90;;;5.86;100.00;96682.53;10467635;28;20227;-66
2024/01/05 10:31:21;;;;;;;6.07;5.53;;;5.20;99.90;;;6.12;100.00;96693.28;10490281;28;20357;-67
2024/01/05 10:36:26;;;;;;;7.40;6.13;;;5.30;99.90;;;6.20;100.00;96684.41;10488576;28;20229;-66
2024/01/05 10:41:30;;;;;;;5.83;5.23;;;5.40;99.90;;;6.25;100.00;96689.75;10489327;28;20236;-65
2024/01/05 10:46:35;;;;;;;7.97;5.40;;;5.50;99.90;;;6.32;100.00;96681.66;10490034;28;20609;-67
2024/01/05 10:51:41;;;;;;;9.60;6.83;;;5.60;99.90;;;6.47;100.00;96679.09;10493527;28;20235;-66
2024/01/05 10:56:45;;;;;;;9.40;8.20;;;5.80;99.90;;;6.65;100.00;96669.91;10424975;28;20230;-66
2024/01/05 11:01:51;;;;;;;8.87;7.27;;;6.00;99.90;;;6.92;100.00;96649.28;10413252;28;20231;-65
2024/01/05 11:06:54;;;;;;;8.20;6.77;;;6.20;99.90;;;7.06;100.00;96650.84;10481324;28;20243;-66
2024/01/05 11:12:12;;;;;;;9.53;7.93;;;6.30;99.90;;;7.23;100.00;96657.66;10486418;28;20233;-67
2024/01/05 11:18:05;;;;;;;9.50;6.70;;;6.40;99.90;;;7.36;99.60;96649.00;10465011;28;21675;-65
2024/01/05 11:23:09;;;;;;;8.50;7.60;;;6.50;99.90;;;7.37;99.97;96660.03;10473435;28;20226;-64
2024/01/05 11:28:35;;;;;;;8.67;7.57;;;6.50;99.90;;;7.44;99.89;96657.00;10454177;28;20236;-65
2024/01/05 11:33:48;;;;;;;7.43;6.63;;;6.60;99.90;;;7.51;99.79;96643.78;10483352;28;20314;-65
2024/01/05 11:38:51;;;;;;;7.20;5.10;;;6.60;99.90;;;7.43;98.35;96632.38;10484941;28;20228;-66
2024/01/05 11:43:55;;;;;;;6.87;5.07;;;6.60;99.90;;;7.38;98.96;96626.16;10483991;28;20716;-67
2024/01/05 11:48:59;;;;;;;9.47;8.50;;;6.60;99.90;;;7.53;99.80;96632.03;10482977;28;20225;-64
2024/01/05 11:54:02;;;;;;;8.23;6.43;;;6.80;99.90;;;7.71;99.50;96623.53;10459873;28;20312;-69
2024/01/05 11:59:06;;;;;;;7.90;6.33;;;6.90;99.90;;;7.73;98.43;96611.78;10460722;28;20232;-66
2024/01/05 12:04:10;;;;;;;5.50;4.93;;;6.90;99.90;;;7.82;96.91;96602.91;10458237;28;20230;-66
2024/01/05 12:09:14;;;;;;;7.20;6.43;;;7.00;99.90;;;7.90;96.27;96600.72;10418975;28;20228;-65
2024/01/05 12:14:27;;;;;;;9.43;8.53;;;7.10;99.90;;;7.89;95.35;96601.50;10447704;28;20228;-65
2024/01/05 12:19:31;;;;;;;8.20;7.27;;;7.10;99.90;;;7.85;96.32;96600.50;10445707;28;20229;-64
2024/01/05 12:24:35;;;;;;;7.87;7.07;;;7.10;99.90;;;7.87;96.92;96604.00;10445633;28;20224;-64
2024/01/05 12:29:42;;;;;;;22.60;14.97;;;7.20;99.90;;;7.94;97.60;96605.13;10482410;28;20223;-66
2024/01/05 12:34:47;;;;;;;19.98;14.07;;;7.20;99.90;;;8.09;97.87;96610.94;10482545;28;20220;-66
2024/01/05 12:39:50;;;;;;;17.70;12.87;;;7.30;99.90;;;8.20;98.30;96600.38;10429569;28;20248;-65
2024/01/05 12:44:53;;;;;;;12.03;9.13;;;7.50;99.90;;;8.26;97.71;96603.19;10442210;28;20312;-66
2024/01/05 12:49:58;;;;;;;11.90;8.83;;;7.40;99.90;;;8.24;97.56;96595.50;10415503;28;20319;-67
2024/01/05 12:55:01;;;;;;;11.00;9.80;;;7.40;99.90;;;8.22;98.03;96588.59;10458950;28;20220;-67
2024/01/05 13:00:06;;;;;;;9.67;8.27;;;7.40;99.90;;;8.25;97.59;96581.09;10487163;28;20224;-66
2024/01/05 13:05:30;;;;;;;14.40;11.43;;;7.40;99.90;;;8.18;98.78;96576.53;10407561;28;20727;-67
2024/01/05 13:10:34;;;;;;;14.27;12.17;;;7.50;99.90;;;8.20;99.59;96567.28;10411573;28;20229;-68
2024/01/05 13:15:40;;;;;;;13.67;11.70;;;7.50;99.90;;;8.23;100.00;96563.22;10459252;28;20622;-66
2024/01/05 13:20:45;;;;;;;14.10;10.77;;;7.60;99.90;;;8.32;100.00;96567.84;10409403;28;20751;-65
2024/01/05 13:25:49;;;;;;;11.40;8.98;;;7.70;99.90;;;8.38;100.00;96557.06;10405450;28;20330;-64
2024/01/05 13:30:52;;;;;;;9.87;8.93;;;7.70;99.90;;;8.40;100.00;96569.09;10406992;28;20655;-65
2024/01/05 13:35:57;;;;;;;13.77;11.10;;;7.70;99.90;;;8.50;98.96;96572.94;10466234;28;20700;-65
2024/01/05 13:41:00;;;;;;;14.05;12.75;;;7.70;99.90;;;8.44;100.00;96572.63;10483669;28;20255;-62
2024/01/05 13:46:04;;;;;;;13.80;12.40;;;7.80;99.90;;;8.38;100.00;96582.50;10481247;28;21928;-65
2024/01/05 13:51:08;;;;;;;16.40;13.20;;;7.70;99.90;;;8.43;100.00;96583.63;10479062;28;20252;-63
2024/01/05 13:56:11;;;;;;;16.27;14.57;;;7.80;99.90;;;8.52;100.00;96591.66;10415398;28;20229;-64
2024/01/05 14:01:15;;;;;;;15.17;13.53;;;7.80;99.90;;;8.54;100.00;96590.94;10406655;28;20348;-64
2024/01/05 14:06:19;;;;;;;14.38;12.88;;;7.90;99.90;;;8.54;100.00;96603.66;10467785;28;20273;-64
2024/01/05 14:11:22;;;;;;;11.40;9.70;;;7.90;99.90;;;8.67;100.00;96601.66;10491208;28;20270;-66
2024/01/05 14:16:25;;;;;;;11.77;10.63;;;7.90;99.90;;;8.65;100.00;96599.06;10487229;28;20290;-65
2024/01/05 14:21:30;;;;;;;11.70;9.77;;;7.80;99.90;;;8.61;100.00;96602.25;10429185;28;20264;-65
2024/01/05 14:26:33;;;;;;;10.88;8.60;;;7.90;99.90;;;8.59;100.00;96608.97;10439855;28;20232;-66
2024/01/05 14:31:36;;;;;;;9.43;8.40;;;7.90;99.90;;;8.62;100.00;96624.41;10415986;28;20229;-65
2024/01/05 14:36:41;;;;;;;6.80;4.67;;;7.90;99.90;;;8.66;98.38;96617.75;10403737;28;20229;-66
2024/01/05 14:41:44;;;;;;;8.27;6.55;;;7.80;99.90;;;8.61;98.09;96620.09;10404688;28;20245;-65
2024/01/05 14:46:47;;;;;;;10.85;7.43;;;7.80;99.90;;;8.60;98.05;96625.13;10402782;28;20695;-65
2024/01/05 14:51:55;;;;;;;38.65;25.08;;;7.90;99.90;;;8.62;97.90;96631.16;10399309;28;20230;-66
2024/01/05 14:56:58;;;;;;;19.20;13.67;;;7.90;99.90;;;8.53;97.91;96624.84;10403819;28;20794;-65
2024/01/05 15:02:02;;;;;;;14.15;10.98;;;7.80;99.90;;;8.56;98.60;96621.56;10415116;28;20641;-64
2024/01/05 15:07:07;;;;;;;19.92;13.23;;;7.80;99.90;;;8.53;98.58;96629.94;10492553;28;20208;-65
2024/01/05 15:12:10;;;;;;;20.02;14.43;;;7.80;99.90;;;8.50;98.20;96629.81;10494635;28;20710;-65
2024/01/05 15:17:13;;;;;;;16.30;12.95;;;7.80;99.90;;;8.47;97.89;96627.13;10490942;28;20714;-65
2024/01/05 15:22:18;;;;;;;14.07;11.23;;;7.70;99.90;;;8.45;97.57;96638.06;10454770;28;20243;-67
2024/01/05 15:27:21;;;;;;;11.10;9.60;;;7.70;99.90;;;8.42;97.98;96623.50;10420081;28;20265;-66
2024/01/05 15:32:24;;;;;;;11.33;8.73;;;7.70;99.90;;;8.39;99.06;96623.38;10449178;28;20232;-66
2024/01/05 15:37:29;;;;;;;31.37;15.47;;;7.60;99.90;;;8.33;98.94;96621.38;10486265;28;20239;-66
2024/01/05 15:42:32;;;;;;;13.77;12.32;;;7.60;99.90;;;8.31;99.14;96622.97;10489431;28;20604;-67
2024/01/05 15:47:36;;;;;;;10.57;9.57;;;7.50;99.90;;;8.27;98.42;96615.13;10484781;28;20235;-65
2024/01/05 15:52:40;;;;;;;9.27;8.37;;;7.50;99.90;;;8.24;99.32;96618.41;10484334;28;20315;-65
2024/01/05 15:57:43;;;;;;;10.60;9.33;;;7.50;99.90;;;8.13;99.24;96612.84;10484671;28;20258;-65
2024/01/05 16:02:47;;;;;;;7.97;7.03;;;7.40;99.90;;;8.05;99.67;96611.59;10493536;28;20323;-65
2024/01/05 16:07:51;;;;;;;5.90;5.30;;;7.30;99.90;;;7.98;100.00;96614.66;10485954;28;20705;-66
2024/01/05 16:12:54;;;;;;;6.17;5.57;;;7.20;99.90;;;7.87;100.00;96624.34;10491703;28;20224;-65
2024/01/05 16:18:00;;;;;;;13.73;10.10;;;7.10;99.90;;;7.83;100.00;96617.34;10493642;28;20238;-64
2024/01/05 16:23:05;;;;;;;20.60;15.83;;;7.00;99.90;;;7.73;100.00;96624.50;10448020;28;20229;-65
2024/01/05 16:28:08;;;;;;;15.67;12.10;;;7.00;99.90;;;7.70;100.00;96617.59;10473013;28;20322;-65
2024/01/05 16:33:11;;;;;;;11.30;8.73;;;6.90;99.90;;;7.70;100.00;96626.84;10445107;28;20231;-66
2024/01/05 16:38:15;;;;;;;10.00;8.10;;;6.90;99.90;;;7.71;100.00;96629.50;10432234;28;20835;-65
2024/01/05 16:43:19;;;;;;;9.07;7.50;;;6.90;99.90;;;7.58;100.00;96624.59;10430988;28;20233;-66
2024/01/05 16:48:22;;;;;;;18.23;13.17;;;6.90;99.90;;;7.51;100.00;96612.41;10418078;28;20272;-67
2024/01/05 16:53:28;;;;;;;10.80;9.00;;;6.70;99.90;;;7.37;100.00;96614.28;10407586;28;20221;-65
2024/01/05 16:58:31;;;;;;;11.67;9.90;;;6.60;99.90;;;7.26;100.00;96613.75;10407993;28;20271;-66
2024/01/05 17:03:34;;;;;;;19.13;14.87;;;6.50;99.90;;;7.16;100.00;96619.19;10419038;28;20729;-65
2024/01/05 17:08:39;;;;;;;15.20;13.60;;;6.40;99.90;;;7.21;100.00;96623.69;10454148;28;20775;-66
2024/01/05 17:13:42;;;;;;;15.33;11.93;;;6.40;99.90;;;7.10;100.00;96619.75;10485800;28;20220;-66
2024/01/05 17:18:45;;;;;;;15.00;12.97;;;6.40;99.90;;;7.06;100.00;96617.81;10461150;28;20231;-66
2024/01/05 17:23:54;;;;;;;13.17;11.87;;;6.30;99.90;;;6.99;100.00;96620.88;10442200;28;20246;-67
2024/01/05 17:28:57;;;;;;;8.80;7.80;;;6.20;99.90;;;6.83;100.00;96623.41;10418273;28;20227;-66
2024/01/05 17:34:02;;;;;;;12.17;9.97;;;6.10;99.90;;;6.83;100.00;96629.38;10489835;28;20319;-69
2024/01/05 17:39:07;;;;;;;17.83;14.27;;;6.10;99.90;;;6.80;100.00;96628.34;10482315;28;20323;-66
2024/01/05 17:44:11;;;;;;;15.77;12.40;;;6.10;99.90;;;6.67;100.00;96637.88;10485380;28;20232;-67
2024/01/05 17:49:14;;;;;;;13.93;12.00;;;6.00;99.90;;;6.79;100.00;96641.84;10435613;28;20288;-66
2024/01/05 17:54:19;;;;;;;14.00;10.90;;;6.10;99.90;;;6.84;100.00;96655.63;10402855;28;20230;-66
2024/01/05 17:59:23;;;;;;;11.97;8.57;;;6.10;99.90;;;6.89;100.00;96659.28;10400690;28;20858;-66
2024/01/05 18:04:26;;;;;;;12.20;10.87;;;6.20;99.90;;;6.90;100.00;96666.13;10411532;28;20232;-66
2024/01/05 18:09:34;;;;;;;11.77;10.73;;;6.20;99.90;;;6.91;100.00;96667.88;10479973;28;20235;-66
2024/01/05 18:14:38;;;;;;;12.07;10.07;;;6.20;99.90;;;6.86;100.00;96665.06;10477486;28;20220;-67
2024/01/05 18:19:42;;;;;;;9.50;8.50;;;6.10;99.90;;;6.77;100.00;96665.47;10476923;28;22965;-66
2024/01/05 18:24:46;;;;;;;8.27;7.57;;;6.00;99.90;;;6.66;100.00;96661.50;10483388;28;20224;-66
2024/01/05 18:29:50;;;;;;;14.60;12.87;;;5.90;99.90;;;6.69;100.00;96670.94;10485711;28;20228;-66
2024/01/05 18:34:54;;;;;;;13.90;11.27;;;6.00;99.90;;;6.66;100.00;96663.16;10481367;28;21594;-67
2024/01/05 18:39:59;;;;;;;10.57;7.77;;;6.00;99.90;;;6.66;100.00;96669.09;10486897;28;20544;-65
2024/01/05 18:45:03;;;;;;;14.93;13.30;;;6.00;99.90;;;6.71;100.00;96674.44;10478224;28;20708;-66
2024/01/05 18:50:08;;;;;;;14.30;10.50;;;6.00;99.90;;;6.79;100.00;96682.47;10491166;28;20240;-67
2024/01/05 18:55:13;;;;;;;15.87;11.73;;;6.10;99.90;;;6.80;100.00;96669.84;10450243;28;20248;-65
2024/01/05 19:00:19;;;;;;;12.80;11.50;;;6.00;99.90;;;6.83;100.00;96664.06;10415084;28;20233;-67
2024/01/05 19:05:22;;;;;;;9.67;8.67;;;6.10;99.90;;;6.81;100.00;96670.72;10417622;28;20248;-67
2024/01/05 19:10:30;;;;;;;6.80;6.13;;;6.00;99.90;;;6.84;100.00;96675.94;10416743;28;20225;-66
2024/01/05 19:15:33;;;;;;;7.07;6.47;;;6.00;99.90;;;6.74;100.00;96690.69;10412972;28;20984;-66
2024/01/05 19:20:37;;;;;;;12.67;11.37;;;6.00;99.90;;;6.73;100.00;96688.97;10413050;28;20780;-66
2024/01/05 19:25:41;;;;;;;11.13;9.93;;;6.00;99.90;;;6.70;100.00;96700.63;10442019;28;20714;-67
2024/01/05 19:30:45;;;;;;;10.50;9.50;;;6.00;99.90;;;6.77;100.00;96712.84;10412727;28;20717;-66
2024/01/05 19:35:48;;;;;;;10.83;9.80;;;6.10;99.90;;;6.75;100.00;96712.78;10415136;28;20621;-66
2024/01/05 19:40:52;;;;;;;10.80;9.67;;;6.10;99.90;;;6.72;100.00;96717.69;10419741;28;20217;-65
2024/01/05 19:45:56;;;;;;;9.30;8.40;;;6.10;99.90;;;6.70;100.00;96706.59;10445163;28;20315;-65
2024/01/05 19:50:59;;;;;;;8.37;7.57;;;6.10;99.90;;;6.58;100.00;96708.47;10490300;28;20726;-66
2024/01/05 19:56:04;;;;;;;8.83;8.00;;;6.00;99.90;;;6.56;100.00;96711.72;10488772;28;20232;-67
2024/01/05 20:01:08;;;;;;;15.30;13.03;;;6.00;99.90;;;6.66;100.00;96712.28;10445030;28;20709;-66
2024/01/05 20:06:12;;;;;;;14.00;12.03;;;6.00;99.90;;;6.64;100.00;96713.88;10416542;28;20317;-66
2024/01/05 20:11:16;;;;;;;12.77;11.47;;;6.00;99.90;;;6.57;100.00;96714.31;10487441;28;20235;-66
2024/01/05 20:16:20;;;;;;;14.93;13.47;;;5.90;99.90;;;6.51;100.00;96706.38;10483138;28;20232;-65
2024/01/05 20:21:23;;;;;;;12.43;11.17;;;5.90;99.90;;;6.48;100.00;96717.25;10487889;28;20237;-65
2024/01/05 20:26:29;;;;;;;14.93;13.33;;;5.90;99.90;;;6.43;100.00;96717.78;10492862;28;20675;-66
2024/01/05 20:31:32;;;;;;;15.00;13.30;;;5.80;99.90;;;6.43;100.00;96707.63;10466361;28;20275;-65
2024/01/05 20:36:35;;;;;;;13.93;12.43;;;5.80;99.90;;;6.38;100.00;96709.94;10479316;28;20810;-66
2024/01/05 20:41:40;;;;;;;11.23;10.13;;;5.70;99.90;;;6.34;100.00;96700.41;10491557;28;20267;-66
2024/01/05 20:46:44;;;;;;;22.57;20.50;;;5.70;99.90;;;6.24;100.00;96706.66;10490022;28;20237;-66
2024/01/05 20:51:48;;;;;;;16.80;15.20;;;5.60;99.90;;;6.21;100.00;96706.47;10491896;28;20539;-66
2024/01/05 20:56:52;;;;;;;19.40;17.40;;;5.60;99.90;;;6.24;100.00;96701.56;10486309;28;20219;-66
2024/01/05 21:01:55;;;;;;;15.13;13.70;;;5.60;99.90;;;6.26;100.00;96709.25;10486857;28;20231;-66
2024/01/05 21:07:00;;;;;;;13.50;12.30;;;5.60;99.90;;;6.28;100.00;96706.00;10491133;28;20223;-65
2024/01/05 21:12:05;;;;;;;13.93;12.53;;;5.60;99.90;;;6.32;100.00;96707.94;10484536;28;20232;-66